Time;durP1;ratioP1;P1;durP2;ratioP2;P2;SDS_P1;SDS_P2;PMS_P1;PMS_P2;Temp;Humidity;BMP_temperature;BMP_pressure;BME280_temperature;BME280_humidity;BME280_pressure;Samples;Min_cycle;Max_cycle;Signal;HPM_P1;HPM_P2
2022/01/25 05:30:52;;;;;;;;;67.67;44.67;;;;;3.21;69.77;102890.56;5104523;27;45838;-75
2022/01/25 05:33:17;;;;;;;;;61.67;49.00;;;;;3.23;69.25;102891.47;5096924;27;45313;-73
2022/01/25 05:35:42;;;;;;;;;69.33;49.33;;;;;3.16;69.86;102893.09;5097176;27;45332;-75
2022/01/25 05:38:08;;;;;;;;;70.33;51.00;;;;;3.15;69.48;102888.66;5096187;27;45392;-74
2022/01/25 05:40:49;;;;;;;;;67.00;44.00;;;;;3.18;70.13;102899.31;5096714;27;45459;-73
2022/01/25 05:46:15;;;;;;;;;70.67;51.33;;;;;3.09;70.86;102890.31;5067268;27;45580;-73
2022/01/25 05:48:42;;;;;;;;;73.33;53.00;;;;;3.04;71.15;102890.22;5097324;27;45282;-73
2022/01/25 05:51:08;;;;;;;;;69.67;53.00;;;;;2.98;71.86;102884.78;5094471;27;45429;-74
2022/01/25 05:53:34;;;;;;;;;72.33;53.00;;;;;3.07;72.00;102897.31;5094712;27;45486;-72
2022/01/25 05:55:59;;;;;;;;;78.00;47.67;;;;;3.15;71.81;102893.97;5110147;27;45333;-74
2022/01/25 05:58:24;;;;;;;;;70.67;56.00;;;;;3.14;71.44;102889.56;5096442;27;45345;-74
2022/01/25 06:00:50;;;;;;;;;71.00;53.33;;;;;3.17;71.22;102901.94;5077357;27;47340;-73
2022/01/25 06:03:16;;;;;;;;;57.67;46.00;;;;;3.13;71.48;102894.81;5095775;27;45290;-74
2022/01/25 06:05:41;;;;;;;;;81.00;52.33;;;;;3.03;72.11;102899.94;5095451;27;45440;-73
2022/01/25 06:08:07;;;;;;;;;69.67;53.67;;;;;2.95;72.32;102896.25;5095808;27;45433;-75
2022/01/25 06:10:33;;;;;;;;;81.67;53.33;;;;;2.90;72.87;102897.88;5096430;27;45648;-74
2022/01/25 06:12:59;;;;;;;;;69.67;54.67;;;;;2.95;72.52;102901.53;5096765;27;45227;-74
2022/01/25 06:15:25;;;;;;;;;62.67;48.67;;;;;3.01;72.14;102899.00;5098093;27;45426;-73
2022/01/25 06:30:40;;;;;;;;;66.00;51.67;;;;;3.01;72.62;102906.06;5072165;28;45323;-46
2022/01/25 06:33:09;;;;;;;;;69.67;49.00;;;;;3.04;72.22;102907.03;5055826;28;45264;-48
2022/01/25 06:35:34;;;;;;;;;68.00;51.67;;;;;3.06;72.15;102904.41;5055053;28;45347;-49
2022/01/25 06:38:00;;;;;;;;;64.67;52.67;;;;;2.99;71.92;102905.13;5053011;28;45347;-50
2022/01/25 06:40:26;;;;;;;;;71.00;54.33;;;;;2.98;72.44;102911.28;5054403;28;46101;-49
2022/01/25 06:42:52;;;;;;;;;73.33;51.67;;;;;2.89;72.55;102900.53;5054785;28;45402;-49
2022/01/25 06:45:18;;;;;;;;;69.67;55.33;;;;;2.84;72.76;102902.19;5055493;28;45427;-48
2022/01/25 06:47:45;;;;;;;;;68.33;52.33;;;;;2.79;73.51;102895.91;5055628;28;45358;-51
2022/01/25 06:50:13;;;;;;;;;63.33;49.00;;;;;2.78;73.06;102895.00;5054635;28;46104;-49
2022/01/25 06:52:40;;;;;;;;;66.00;49.67;;;;;2.69;73.50;102893.94;5055407;28;45249;-49
2022/01/25 06:55:08;;;;;;;;;69.00;53.67;;;;;2.66;74.03;102905.34;5046490;28;45430;-51
2022/01/25 06:57:33;;;;;;;;;73.33;55.67;;;;;2.62;73.94;102895.56;5055166;28;45396;-50
2022/01/25 06:59:58;;;;;;;;;68.33;54.33;;;;;2.63;73.98;102898.25;5054967;28;45989;-50
2022/01/25 07:02:24;;;;;;;;;69.67;55.67;;;;;2.65;73.72;102895.59;5055099;28;45316;-51
2022/01/25 07:04:49;;;;;;;;;62.00;50.00;;;;;2.75;73.76;102896.69;5055004;28;45342;-48
2022/01/25 07:07:14;;;;;;;;;59.67;48.67;;;;;2.80;73.67;102903.00;5054860;28;45596;-51
2022/01/25 07:09:40;;;;;;;;;70.33;53.33;;;;;2.84;73.84;102907.47;5054926;28;46057;-49
2022/01/25 07:12:06;;;;;;;;;72.67;52.67;;;;;2.89;73.41;102912.00;5055020;28;45339;-50
2022/01/25 07:14:31;;;;;;;;;71.33;54.00;;;;;2.86;73.70;102905.75;5055076;28;45377;-48
2022/01/25 07:16:57;;;;;;;;;61.00;44.33;;;;;2.88;73.53;102906.69;5054992;28;45292;-50
2022/01/25 07:19:22;;;;;;;;;61.67;47.33;;;;;2.90;72.89;102907.59;5054494;28;45323;-48
2022/01/25 07:21:47;;;;;;;;;64.00;52.67;;;;;2.92;73.10;102906.78;5054743;28;45361;-50
2022/01/25 07:24:14;;;;;;;;;47.33;34.33;;;;;2.90;72.83;102904.94;5055007;28;45387;-48
2022/01/25 07:26:39;;;;;;;;;68.33;53.00;;;;;2.87;72.99;102915.50;5054814;28;45258;-50
2022/01/25 07:29:04;;;;;;;;;64.00;52.00;;;;;2.81;73.65;102910.06;5054598;28;46294;-47
2022/01/25 07:31:30;;;;;;;;;72.00;53.67;;;;;2.86;72.86;102919.91;5043722;28;45331;-47
2022/01/25 07:33:55;;;;;;;;;64.67;52.33;;;;;2.92;72.82;102914.72;5041535;28;45359;-50
2022/01/25 07:36:20;;;;;;;;;66.33;48.67;;;;;2.95;72.64;102916.53;5041119;28;45462;-50
2022/01/25 07:38:46;;;;;;;;;68.33;51.33;;;;;2.98;72.55;102922.78;5041256;28;46077;-50
2022/01/25 07:41:11;;;;;;;;;70.33;53.67;;;;;3.00;72.20;102931.66;5041251;28;45320;-49
2022/01/25 07:43:36;;;;;;;;;65.33;51.33;;;;;2.95;72.54;102933.34;5041066;28;45352;-50
2022/01/25 07:46:04;;;;;;;;;69.00;54.00;;;;;2.93;72.51;102929.75;5041108;28;46193;-50
2022/01/25 07:48:30;;;;;;;;;51.33;42.67;;;;;2.77;72.98;102930.31;5041055;28;46996;-50
2022/01/25 07:50:56;;;;;;;;;55.67;44.00;;;;;2.72;73.45;102936.38;5045005;28;45462;-49
2022/01/25 07:53:22;;;;;;;;;69.00;51.33;;;;;2.64;73.64;102931.78;5042895;28;45595;-48
2022/01/25 07:55:48;;;;;;;;;63.67;52.33;;;;;2.66;73.45;102945.97;5037863;28;45350;-50
2022/01/25 07:58:13;;;;;;;;;60.00;45.67;;;;;2.70;73.73;102935.44;5039043;28;46318;-48
2022/01/25 08:00:39;;;;;;;;;59.67;49.33;;;;;2.80;73.14;102946.28;5040711;28;45268;-48
2022/01/25 08:03:04;;;;;;;;;69.00;54.00;;;;;2.87;72.80;102948.19;5039791;28;45272;-48
2022/01/25 08:05:29;;;;;;;;;64.67;52.33;;;;;2.76;73.01;102941.75;5039311;28;45595;-49
2022/01/25 08:07:55;;;;;;;;;63.00;45.67;;;;;2.66;73.38;102943.31;5037445;28;45434;-49
2022/01/25 08:10:22;;;;;;;;;66.67;48.67;;;;;2.70;73.43;102943.38;5040310;28;45209;-52
2022/01/25 08:12:47;;;;;;;;;56.33;46.00;;;;;2.57;73.76;102944.84;5037382;28;45464;-49
2022/01/25 08:15:15;;;;;;;;;62.67;46.00;;;;;2.49;74.11;102957.94;5035805;28;46033;-47
2022/01/25 08:17:40;;;;;;;;;63.67;53.00;;;;;2.41;74.59;102963.91;5039932;28;47132;-48
2022/01/25 08:20:06;;;;;;;;;59.00;49.33;;;;;2.27;75.15;102947.72;5040109;28;45365;-47
2022/01/25 08:22:33;;;;;;;;;67.00;52.67;;;;;2.33;74.98;102961.09;5037415;28;45540;-49
2022/01/25 08:24:59;;;;;;;;;55.67;43.67;;;;;2.30;74.62;102958.34;5038224;28;45671;-50
2022/01/25 08:27:24;;;;;;;;;62.33;47.00;;;;;2.28;74.74;102966.28;5037907;28;46364;-51
2022/01/25 08:29:51;;;;;;;;;55.33;48.67;;;;;2.25;74.48;102958.25;5038931;28;45502;-50
2022/01/25 08:32:17;;;;;;;;;42.33;37.67;;;;;2.22;74.80;102960.81;5039326;28;45356;-48
2022/01/25 08:34:42;;;;;;;;;49.33;40.33;;;;;2.28;74.69;102963.63;5039449;28;45272;-49
2022/01/25 08:37:08;;;;;;;;;54.67;42.67;;;;;2.35;74.06;102969.06;5040302;28;46173;-51
2022/01/25 08:39:34;;;;;;;;;69.00;54.67;;;;;2.21;74.28;102964.31;5039324;28;45299;-49
2022/01/25 08:41:59;;;;;;;;;52.33;42.33;;;;;2.19;74.79;102957.22;5038504;28;45802;-48
2022/01/25 08:44:25;;;;;;;;;50.00;41.67;;;;;2.24;74.36;102964.41;5039283;28;45534;-50
2022/01/25 08:46:51;;;;;;;;;59.67;47.33;;;;;2.30;74.07;102963.66;5040037;28;46041;-50
2022/01/25 08:49:16;;;;;;;;;39.67;39.67;;;;;2.31;73.99;102949.56;5039720;28;45921;-51
2022/01/25 08:51:42;;;;;;;;;61.00;45.00;;;;;2.36;73.65;102958.53;5038740;28;45395;-49
2022/01/25 08:54:08;;;;;;;;;53.00;41.67;;;;;2.31;73.73;102949.56;5039076;28;45165;-51
2022/01/25 08:56:34;;;;;;;;;51.67;45.67;;;;;2.26;74.07;102960.06;5037207;28;46301;-49
2022/01/25 08:58:59;;;;;;;;;61.67;48.00;;;;;2.22;74.75;102959.94;5038675;28;45441;-50
2022/01/25 09:01:26;;;;;;;;;59.33;45.00;;;;;2.25;74.66;102958.25;5040258;28;45339;-48
2022/01/25 09:03:54;;;;;;;;;54.00;43.33;;;;;2.27;74.65;102956.56;5038981;28;45426;-49
2022/01/25 09:06:20;;;;;;;;;43.67;35.33;;;;;2.31;74.52;102972.47;5039558;28;46370;-49
2022/01/25 09:08:46;;;;;;;;;49.67;41.33;;;;;2.26;74.82;102968.00;5039836;28;45347;-49
2022/01/25 09:11:11;;;;;;;;;45.67;38.67;;;;;2.28;74.68;102963.63;5040091;28;45406;-52
2022/01/25 09:13:39;;;;;;;;;60.33;46.67;;;;;2.34;74.71;102965.53;5038082;28;45425;-50
2022/01/25 09:16:04;;;;;;;;;62.33;47.33;;;;;2.37;74.40;102964.72;5039706;28;46184;-49
2022/01/25 09:18:31;;;;;;;;;57.00;44.33;;;;;2.31;74.77;102962.78;5039500;28;45423;-50
2022/01/25 09:20:57;;;;;;;;;48.33;45.33;;;;;2.38;74.59;102964.75;5039585;28;45294;-47
2022/01/25 09:23:23;;;;;;;;;59.33;47.33;;;;;2.39;74.93;102962.97;5038478;28;45426;-49
2022/01/25 09:25:49;;;;;;;;;53.33;47.00;;;;;2.47;74.67;102964.03;5039707;28;46204;-50
2022/01/25 09:28:16;;;;;;;;;52.33;36.33;;;;;2.46;74.06;102973.75;5037040;28;45410;-51
2022/01/25 09:30:42;;;;;;;;;52.33;44.00;;;;;2.50;73.92;102967.66;5038473;28;46542;-47
2022/01/25 09:33:08;;;;;;;;;65.33;47.67;;;;;2.55;74.08;102966.00;5037701;28;46112;-52
2022/01/25 09:35:33;;;;;;;;;66.33;44.67;;;;;2.66;73.96;102977.72;5038466;28;46201;-49
2022/01/25 09:37:59;;;;;;;;;49.00;41.67;;;;;2.73;73.52;102978.75;5039203;28;45438;-52
2022/01/25 09:40:25;;;;;;;;;50.33;38.67;;;;;2.73;74.03;102988.44;5044715;28;45260;-49
2022/01/25 09:42:54;;;;;;;;;57.67;41.33;;;;;2.71;73.65;102984.91;5037659;28;45170;-47
2022/01/25 09:45:20;;;;;;;;;66.67;52.00;;;;;2.70;73.58;102984.00;5039232;28;46178;-49
2022/01/25 09:47:47;;;;;;;;;57.67;43.67;;;;;2.68;73.83;102991.00;5038827;28;45265;-51
2022/01/25 09:50:13;;;;;;;;;37.00;37.00;;;;;2.68;73.42;102993.66;5039125;28;45349;-50
2022/01/25 09:52:41;;;;;;;;;63.00;48.67;;;;;2.59;73.97;102991.69;5037990;28;45344;-50
2022/01/25 09:55:12;;;;;;;;;56.00;46.00;;;;;2.55;74.55;102983.66;5039203;28;45443;-51
2022/01/25 09:57:38;;;;;;;;;66.67;49.00;;;;;2.54;74.80;102992.47;5037350;28;45331;-51
2022/01/25 10:00:07;;;;;;;;;63.33;48.33;;;;;2.70;75.17;102994.59;5038208;28;45118;-51
2022/01/25 10:03:09;;;;;;;;;70.00;50.00;;;;;2.78;74.68;102997.41;5032407;28;45826;-48
2022/01/25 10:05:41;;;;;;;;;57.33;50.00;;;;;2.78;74.25;102990.38;5038210;28;46334;-49
2022/01/25 10:08:10;;;;;;;;;61.00;50.00;;;;;2.87;74.11;103001.16;5038156;28;45423;-51
2022/01/25 10:10:51;;;;;;;;;57.33;45.00;;;;;2.72;74.58;102992.88;5039138;28;46162;-47
2022/01/25 10:13:24;;;;;;;;;59.00;45.00;;;;;2.71;74.65;102990.19;5037033;28;45395;-49
2022/01/25 10:16:03;;;;;;;;;60.67;50.67;;;;;2.72;74.37;102987.59;5038998;28;46227;-49
2022/01/25 10:18:43;;;;;;;;;63.67;52.67;;;;;2.72;74.01;102989.34;5038945;28;45366;-48
2022/01/25 10:21:23;;;;;;;;;67.00;50.00;;;;;2.77;74.21;102996.53;5038229;28;45401;-51
2022/01/25 10:24:06;;;;;;;;;64.67;47.67;;;;;2.82;74.11;102986.00;5037947;28;45447;-49
2022/01/25 10:26:46;;;;;;;;;68.33;52.33;;;;;2.88;73.84;102996.75;5037817;28;46472;-49
2022/01/25 10:29:15;;;;;;;;;67.67;52.33;;;;;2.93;73.50;103003.94;5035748;28;45508;-48
2022/01/25 10:31:44;;;;;;;;;67.33;50.00;;;;;3.01;73.19;103005.00;5038721;28;45379;-49
2022/01/25 10:34:12;;;;;;;;;57.67;47.67;;;;;3.04;73.11;103004.16;5036965;28;45475;-51
2022/01/25 10:36:46;;;;;;;;;51.67;41.33;;;;;3.00;72.89;103008.50;5038570;28;46064;-51
2022/01/25 10:39:30;;;;;;;;;59.00;47.67;;;;;2.99;73.83;103000.50;5037991;28;45478;-48
2022/01/25 10:42:17;;;;;;;;;53.67;45.33;;;;;3.10;73.50;103001.63;5038070;28;45375;-50
2022/01/25 10:45:02;;;;;;;;;64.00;51.00;;;;;3.25;72.91;103007.25;5037333;28;46213;-48
2022/01/25 10:47:49;;;;;;;;;64.00;48.67;;;;;3.32;73.04;103000.31;5037616;28;46175;-48
2022/01/25 10:50:21;;;;;;;;;63.33;50.67;;;;;3.41;72.60;102998.72;5038158;28;45401;-48
2022/01/25 10:52:47;;;;;;;;;69.67;47.33;;;;;3.48;72.14;103010.38;5037801;28;45268;-49
2022/01/25 10:55:14;;;;;;;;;60.00;47.33;;;;;3.49;72.16;103006.84;5038124;28;45911;-50
2022/01/25 10:57:39;;;;;;;;;69.00;52.67;;;;;3.54;71.54;103005.19;5036999;28;46248;-52
2022/01/25 11:00:11;;;;;;;;;56.33;47.00;;;;;3.49;71.43;103001.53;5036989;28;45378;-50
2022/01/25 11:02:56;;;;;;;;;61.33;48.67;;;;;3.50;71.46;102995.38;5037752;28;45445;-49
2022/01/25 11:05:22;;;;;;;;;60.67;46.67;;;;;3.57;71.71;102999.94;5037832;28;45591;-48
2022/01/25 11:07:47;;;;;;;;;53.00;47.00;;;;;3.63;71.23;102996.50;5041947;28;46127;-51
2022/01/25 11:10:18;;;;;;;;;64.67;46.33;;;;;3.69;70.98;102991.31;5041173;28;45290;-49
2022/01/25 11:13:00;;;;;;;;;63.67;47.00;;;;;3.79;70.73;102986.19;5051179;28;45353;-53
2022/01/25 11:15:26;;;;;;;;;61.67;48.00;;;;;3.88;70.40;102989.88;5041523;28;45339;-53
2022/01/25 11:17:51;;;;;;;;;51.67;43.00;;;;;3.94;70.50;102993.53;5041776;28;46138;-49
2022/01/25 11:20:16;;;;;;;;;64.33;52.67;;;;;3.94;70.01;102985.56;5039480;28;45410;-50
2022/01/25 11:22:45;;;;;;;;;61.67;47.33;;;;;3.95;70.07;102979.41;5041468;28;45339;-51
2022/01/25 11:25:14;;;;;;;;;63.67;52.33;;;;;3.99;70.01;102985.66;5041228;28;45170;-49
2022/01/25 11:27:41;;;;;;;;;59.00;44.67;;;;;4.01;69.69;102986.56;5041167;28;46374;-51
2022/01/25 11:30:11;;;;;;;;;57.33;43.00;;;;;4.02;70.28;102993.66;5041466;28;45409;-50
2022/01/25 11:32:42;;;;;;;;;60.00;46.00;;;;;3.93;70.42;102985.53;5041472;28;45324;-48
2022/01/25 11:35:11;;;;;;;;;76.00;48.00;;;;;3.93;70.12;102988.19;5041017;28;45624;-48
2022/01/25 11:37:41;;;;;;;;;60.67;47.33;;;;;3.93;70.21;102990.84;5041296;28;45342;-51
2022/01/25 11:40:25;;;;;;;;;67.00;44.33;;;;;3.83;70.54;102983.63;5041109;28;45441;-50
2022/01/25 11:42:54;;;;;;;;;59.00;41.33;;;;;3.89;70.93;102991.66;5041269;28;45445;-52
2022/01/25 11:45:22;;;;;;;;;57.00;46.33;;;;;3.98;70.49;102992.72;5041342;28;45342;-50
2022/01/25 11:47:51;;;;;;;;;74.00;48.67;;;;;4.02;70.30;102991.00;5041026;28;46159;-52
2022/01/25 11:50:16;;;;;;;;;60.33;47.33;;;;;4.00;70.20;102985.66;5040883;28;45248;-48
2022/01/25 11:52:48;;;;;;;;;64.67;49.33;;;;;3.98;70.02;102981.22;5040612;28;45382;-52
2022/01/25 11:55:26;;;;;;;;;56.67;45.33;;;;;4.06;69.99;102990.19;5040894;28;46205;-50
2022/01/25 11:58:29;;;;;;;;;46.67;32.67;;;;;4.12;69.75;102984.97;5040921;28;46224;-51
2022/01/25 12:00:57;;;;;;;;;63.67;50.67;;;;;4.18;69.50;102985.97;5022021;28;45338;-50
2022/01/25 12:03:30;;;;;;;;;59.00;49.00;;;;;4.22;69.38;102984.28;5040898;28;45355;-50
2022/01/25 12:06:05;;;;;;;;;57.67;42.00;;;;;4.24;69.55;102973.69;5040480;28;45351;-50
2022/01/25 12:09:06;;;;;;;;;55.00;44.00;;;;;4.29;69.31;102980.84;5040479;28;47054;-49
2022/01/25 12:11:44;;;;;;;;;61.00;45.67;;;;;4.41;69.25;102975.72;5040737;28;45348;-50
2022/01/25 12:14:10;;;;;;;;;72.00;51.33;;;;;4.50;68.89;102977.63;5040827;28;45323;-49
2022/01/25 12:16:44;;;;;;;;;58.00;46.67;;;;;4.56;68.61;102977.72;5040295;28;45337;-49
2022/01/25 12:19:12;;;;;;;;;55.00;43.67;;;;;4.60;68.59;102973.31;5040376;28;46272;-50
2022/01/25 12:21:52;;;;;;;;;67.67;53.00;;;;;4.64;68.09;102965.44;5040259;28;45296;-48
2022/01/25 12:24:25;;;;;;;;;64.67;50.33;;;;;4.61;68.21;102959.16;5040643;28;45424;-51
2022/01/25 12:29:41;;;;;;;;;60.33;47.00;;;;;4.52;68.74;102960.81;5040158;28;46027;-51
2022/01/25 12:32:30;;;;;;;;;66.33;48.33;;;;;4.52;68.43;102950.19;5040605;28;45358;-52
2022/01/25 12:35:19;;;;;;;;;63.67;46.67;;;;;4.60;68.63;102955.63;5040236;28;45289;-53
2022/01/25 12:37:44;;;;;;;;;63.00;42.67;;;;;4.61;67.98;102948.53;5040247;28;45422;-51
2022/01/25 12:40:25;;;;;;;;;59.67;40.33;;;;;4.55;68.12;102944.94;5040062;28;47036;-49
2022/01/25 12:43:19;;;;;;;;;67.33;48.67;;;;;4.58;68.76;102946.75;5040373;28;45435;-48
2022/01/25 12:45:51;;;;;;;;;61.67;48.33;;;;;4.55;68.43;102950.25;5032902;28;45243;-49
2022/01/25 12:48:21;;;;;;;;;58.67;46.67;;;;;4.53;68.74;102948.44;5040408;28;45242;-51
2022/01/25 12:50:50;;;;;;;;;64.33;44.00;;;;;4.55;68.59;102946.69;5039580;28;46261;-52
2022/01/25 12:53:21;;;;;;;;;63.67;48.67;;;;;4.55;68.65;102936.97;5040102;28;45383;-48
2022/01/25 12:55:50;;;;;;;;;69.00;49.00;;;;;4.50;68.75;102940.44;5039854;28;45222;-50
2022/01/25 12:58:19;;;;;;;;;63.67;51.00;;;;;4.45;68.96;102940.34;5039801;28;45256;-55
2022/01/25 13:00:48;;;;;;;;;65.67;47.00;;;;;4.44;69.43;102938.56;5039604;28;46186;-50
2022/01/25 13:03:21;;;;;;;;;61.67;47.00;;;;;4.52;68.93;102941.34;5039999;28;45346;-51
2022/01/25 13:05:56;;;;;;;;;51.67;39.67;;;;;4.54;68.76;102937.84;5039797;28;45339;-51
2022/01/25 13:08:26;;;;;;;;;60.33;49.33;;;;;4.59;69.00;102939.69;5039813;28;45337;-50
2022/01/25 13:11:11;;;;;;;;;70.33;48.67;;;;;4.52;68.75;102939.56;5039720;28;45402;-53
2022/01/25 13:13:47;;;;;;;;;59.67;46.33;;;;;4.53;69.22;102924.53;5039684;28;45363;-48
2022/01/25 13:16:13;;;;;;;;;69.33;47.67;;;;;4.59;68.83;102921.97;5039715;28;45369;-51
2022/01/25 13:18:40;;;;;;;;;62.67;45.33;;;;;4.62;68.78;102914.03;5039516;28;45329;-55
2022/01/25 13:21:09;;;;;;;;;61.00;46.33;;;;;4.64;68.66;102914.94;5039278;28;47330;-48
2022/01/25 13:23:49;;;;;;;;;64.67;44.00;;;;;4.62;69.02;102910.47;5026560;28;45351;-50
2022/01/25 13:26:16;;;;;;;;;66.00;47.33;;;;;4.53;69.28;102914.81;5039509;28;45236;-49
2022/01/25 13:31:17;;;;;;;;;73.00;47.67;;;;;4.54;69.55;102916.59;5039208;28;45319;-50
2022/01/25 13:33:43;;;;;;;;;63.67;46.67;;;;;4.60;69.64;102920.19;5039512;28;45461;-51
2022/01/25 13:36:13;;;;;;;;;64.67;45.67;;;;;4.65;68.93;102915.84;5039071;28;45466;-51
2022/01/25 13:38:39;;;;;;;;;63.00;47.00;;;;;4.60;69.02;102910.44;5039348;28;45215;-49
2022/01/25 13:46:44;;;;;;;;;63.00;50.00;;;;;4.53;69.30;102919.22;5027670;28;45173;-51
2022/01/25 13:49:12;;;;;;;;;63.33;46.67;;;;;4.55;69.19;102928.09;5038909;28;45234;-54
2022/01/25 13:51:44;;;;;;;;;60.00;43.00;;;;;4.57;69.48;102926.38;5039099;28;46278;-49
2022/01/25 13:54:14;;;;;;;;;64.00;47.67;;;;;4.54;69.27;102921.00;5039297;28;45665;-52
2022/01/25 13:56:41;;;;;;;;;58.33;43.33;;;;;4.56;69.28;102921.94;5039066;28;45276;-50
2022/01/25 13:59:07;;;;;;;;;66.00;48.33;;;;;4.51;69.37;102916.53;5038731;28;45378;-50
2022/01/25 14:01:35;;;;;;;;;53.67;41.00;;;;;4.48;70.05;102918.28;5038965;28;46364;-51
2022/01/25 14:04:21;;;;;;;;;49.00;39.67;;;;;4.45;70.20;102926.19;5038556;28;45287;-52
2022/01/25 14:06:57;;;;;;;;;36.00;28.00;;;;;4.40;70.50;102920.81;5038856;28;45284;-51
2022/01/25 14:09:30;;;;;;;;;68.00;46.00;;;;;4.48;69.92;102918.28;5039070;28;45549;-50
2022/01/25 14:26:07;;;;;;;;;64.33;47.00;;;;;4.48;70.39;102920.94;5005005;28;45237;-49
2022/01/25 14:28:39;;;;;;;;;59.33;44.67;;;;;4.55;70.12;102921.03;5038937;28;45299;-49
2022/01/25 14:31:14;;;;;;;;;67.67;46.00;;;;;4.57;69.55;102908.66;5038500;28;45383;-54
2022/01/25 14:33:39;;;;;;;;;59.67;45.00;;;;;4.69;69.43;102915.00;5038634;28;45469;-52
2022/01/25 14:36:09;;;;;;;;;60.33;45.33;;;;;4.75;69.16;102920.41;5038305;28;45360;-48
2022/01/25 14:38:40;;;;;;;;;55.33;41.33;;;;;4.81;69.25;102920.47;5038924;28;45317;-51
2022/01/25 14:41:13;;;;;;;;;56.33;43.33;;;;;4.78;68.80;102916.00;5040581;28;45269;-49
2022/01/25 14:43:50;;;;;;;;;51.67;43.67;;;;;4.76;68.72;102912.47;5042179;28;47016;-52
2022/01/25 14:46:20;;;;;;;;;59.00;42.67;;;;;4.80;68.62;102911.63;5042188;28;45323;-51
2022/01/25 14:49:48;;;;;;;;;56.00;41.00;;;;;4.81;68.66;102905.44;5042111;28;45306;-50
2022/01/25 14:52:07;;;;;;;;;58.67;43.00;;;;;4.89;68.56;102911.72;5039740;28;45693;-50
2022/01/25 14:54:42;;;;;;;;;64.33;49.33;;;;;4.94;68.97;102914.44;5041749;28;46082;-50
2022/01/25 14:57:12;;;;;;;;;60.33;45.67;;;;;5.01;68.84;102918.97;5039679;28;45386;-51
2022/01/25 14:59:46;;;;;;;;;57.67;43.00;;;;;5.07;68.66;102911.06;5042198;28;45635;-47
2022/01/25 15:02:13;;;;;;;;;65.67;44.33;;;;;5.12;68.13;102914.63;5041729;28;45324;-48
2022/01/25 15:04:47;;;;;;;;;56.00;42.33;;;;;5.14;68.00;102915.56;5041422;28;45478;-50
2022/01/25 15:07:17;;;;;;;;;71.33;49.00;;;;;5.16;67.66;102921.78;5041771;28;45270;-52
2022/01/25 15:09:54;;;;;;;;;59.67;38.00;;;;;5.13;67.47;102912.88;5041925;28;45395;-52
2022/01/25 15:12:24;;;;;;;;;52.33;40.00;;;;;5.18;67.89;102921.81;5034238;28;46061;-51
2022/01/25 15:15:05;;;;;;;;;52.67;41.33;;;;;5.16;67.67;102928.88;5039216;28;46797;-53
2022/01/25 15:17:32;;;;;;;;;54.67;42.33;;;;;5.16;67.45;102923.56;5041632;28;45401;-51
2022/01/25 15:19:58;;;;;;;;;55.67;42.33;;;;;5.10;68.15;102920.84;5041006;28;45522;-51
2022/01/25 15:22:25;;;;;;;;;55.00;42.67;;;;;5.07;67.95;102937.63;5041484;28;45482;-50
2022/01/25 15:24:51;;;;;;;;;55.00;37.33;;;;;5.02;68.41;102925.19;5041281;28;46162;-52
2022/01/25 15:27:20;;;;;;;;;64.33;46.00;;;;;5.05;68.38;102936.72;5041605;28;45358;-51
2022/01/25 15:29:46;;;;;;;;;55.00;42.00;;;;;5.05;68.19;102925.19;5056864;28;45312;-52
2022/01/25 15:32:11;;;;;;;;;55.00;40.33;;;;;5.08;67.75;102947.41;5040910;28;45712;-51
2022/01/25 15:34:39;;;;;;;;;63.33;40.33;;;;;5.07;67.71;102947.38;5040778;28;46028;-50
2022/01/25 15:37:06;;;;;;;;;55.33;42.67;;;;;5.02;67.78;102949.97;5041330;28;45418;-51
2022/01/25 15:39:32;;;;;;;;;44.00;37.33;;;;;4.94;68.07;102954.28;5041331;28;45335;-49
2022/01/25 15:41:59;;;;;;;;;63.33;47.33;;;;;4.87;68.31;102955.09;5041166;28;45523;-50
2022/01/25 15:45:08;;;;;;;;;55.33;41.33;;;;;4.81;68.99;102950.59;5040943;28;46232;-50
2022/01/25 15:47:19;;;;;;;;;61.33;44.67;;;;;4.75;68.25;102957.59;5037831;28;45487;-49
2022/01/25 15:49:45;;;;;;;;;50.33;42.67;;;;;4.69;68.85;102957.50;5040913;28;45322;-49
2022/01/25 15:52:11;;;;;;;;;66.33;44.00;;;;;4.62;68.71;102967.16;5040544;28;45266;-50
2022/01/25 15:54:37;;;;;;;;;46.67;37.33;;;;;4.62;69.31;102956.53;5041080;28;45277;-47
2022/01/25 15:57:03;;;;;;;;;60.00;46.67;;;;;4.56;69.47;102951.16;5040785;28;45337;-49
2022/01/25 15:59:29;;;;;;;;;66.67;44.00;;;;;4.49;69.19;102957.25;5040995;28;45546;-49
2022/01/25 16:01:58;;;;;;;;;57.67;45.67;;;;;4.50;69.43;102962.59;5040853;28;45311;-50
2022/01/25 16:04:26;;;;;;;;;55.00;43.00;;;;;4.43;69.65;102963.34;5040585;28;46248;-51
2022/01/25 16:06:52;;;;;;;;;57.00;37.00;;;;;4.41;69.53;102958.91;5040705;28;45415;-51
2022/01/25 16:09:18;;;;;;;;;64.67;46.00;;;;;4.40;70.13;102959.75;5040980;28;45504;-48
2022/01/25 16:11:46;;;;;;;;;54.67;41.67;;;;;4.34;70.20;102959.69;5040440;28;45462;-49
2022/01/25 16:14:11;;;;;;;;;46.00;37.00;;;;;4.17;70.96;102949.66;5040606;28;45331;-51
2022/01/25 16:16:37;;;;;;;;;59.00;47.33;;;;;4.18;71.05;102962.06;5040639;28;45344;-50
2022/01/25 16:19:03;;;;;;;;;68.33;47.00;;;;;4.06;71.39;102953.03;5040505;28;45268;-48
2022/01/25 16:21:28;;;;;;;;;63.00;48.00;;;;;4.07;71.25;102953.06;5040541;28;45443;-49
2022/01/25 16:23:53;;;;;;;;;72.00;53.00;;;;;4.11;71.80;102964.63;5040576;28;46008;-48
2022/01/25 16:26:19;;;;;;;;;68.33;48.33;;;;;4.04;72.19;102958.31;5040280;28;45150;-49
2022/01/25 16:28:49;;;;;;;;;59.00;49.33;;;;;3.98;72.42;102962.63;5040214;28;45307;-51
2022/01/25 16:31:21;;;;;;;;;66.00;43.67;;;;;3.84;72.80;102959.72;5040052;28;45731;-51
2022/01/25 16:33:48;;;;;;;;;64.00;50.67;;;;;3.78;72.93;102970.25;5039094;28;47129;-49
2022/01/25 16:36:14;;;;;;;;;52.00;40.67;;;;;3.80;72.54;102969.41;5038880;28;45383;-51
2022/01/25 16:38:39;;;;;;;;;63.00;46.00;;;;;3.83;72.19;102970.34;5040253;28;45464;-51
2022/01/25 16:41:05;;;;;;;;;65.33;45.67;;;;;3.80;72.82;102966.78;5039971;28;45378;-50
2022/01/25 16:43:30;;;;;;;;;64.67;49.67;;;;;3.77;72.72;102961.41;5039985;28;45396;-51
2022/01/25 16:45:57;;;;;;;;;67.00;48.33;;;;;3.85;72.45;102965.94;5039965;28;45293;-50
2022/01/25 16:48:23;;;;;;;;;67.00;50.00;;;;;3.86;72.37;102973.94;5040273;28;45399;-49
2022/01/25 16:50:49;;;;;;;;;75.67;53.33;;;;;3.91;72.28;102974.03;5039646;28;45569;-51
2022/01/25 16:53:14;;;;;;;;;59.33;46.67;;;;;3.94;71.65;102971.41;5040224;28;46480;-49
2022/01/25 16:55:39;;;;;;;;;60.00;46.67;;;;;4.02;71.43;102972.41;5040042;28;45605;-49
2022/01/25 16:58:05;;;;;;;;;64.00;46.67;;;;;4.04;71.46;102978.66;5040262;28;45257;-51
2022/01/25 17:00:33;;;;;;;;;63.33;45.00;;;;;4.09;71.40;102979.63;5039524;28;45460;-47
2022/01/25 17:02:59;;;;;;;;;64.00;44.00;;;;;4.15;71.59;102987.69;5038853;28;46396;-47
2022/01/25 17:05:25;;;;;;;;;66.00;49.00;;;;;4.17;71.22;102978.88;5039438;28;45316;-54
2022/01/25 17:07:54;;;;;;;;;68.33;49.67;;;;;4.28;71.33;102987.00;5039922;28;45378;-49
2022/01/25 17:10:19;;;;;;;;;58.33;47.67;;;;;4.31;71.17;102984.41;5039803;28;45342;-49
2022/01/25 17:12:45;;;;;;;;;66.67;46.67;;;;;4.39;71.63;102997.81;5039747;28;46292;-47
2022/01/25 17:15:10;;;;;;;;;56.33;39.33;;;;;4.47;70.98;102989.09;5039650;28;45303;-51
2022/01/25 17:17:36;;;;;;;;;39.67;39.33;;;;;4.55;70.33;102997.16;5040227;28;45302;-50
2022/01/25 17:20:02;;;;;;;;;66.67;44.33;;;;;4.55;70.16;102998.06;5039050;28;45390;-48
2022/01/25 17:22:28;;;;;;;;;67.33;46.33;;;;;4.53;69.67;103002.44;5033824;28;46358;-49
2022/01/25 17:24:53;;;;;;;;;60.67;43.67;;;;;4.48;69.69;103005.91;5037193;28;45666;-48
2022/01/25 17:27:18;;;;;;;;;54.33;44.00;;;;;4.48;70.06;102997.94;5035460;28;45551;-50
2022/01/25 17:29:44;;;;;;;;;58.33;42.00;;;;;4.50;69.90;103001.53;5038908;28;45472;-50
2022/01/25 17:32:09;;;;;;;;;55.67;46.00;;;;;4.49;69.33;102995.31;5039155;28;46224;-50
2022/01/25 17:34:35;;;;;;;;;53.33;42.33;;;;;4.41;70.19;103004.94;5038187;28;45300;-50
2022/01/25 17:37:00;;;;;;;;;74.33;50.33;;;;;4.41;70.58;103010.25;5036394;28;45348;-51